Main page
METAR-TAF:

METAR-TAF

Airports :

Herat International Airport

Herat, Afghanistan

latitude: 34-13N, longitude: 062-13E, elevation: 964 m

Current weather observation

The report was made 40 minutes ago, at 23:55 UTC
Calm wind
Temperature 8°C
Humidity 49%
Pressure 1017 hPa
Visibility 10 km or more
no clouds below 1500 m and no cumulonimbus

METAR: OAHR 232355Z 00000KT CAVOK 08/M02 Q1017 RMK A3006 BLU

Time: 05:05 (00:35 UTC)

Forecast

Forecast valid from 24 at 00 UTC to 24 at 24 UTC
Wind 3 kt from variable directions
Visibility 10 km or more
no clouds below 1500 m and no cumulonimbus
Becoming
from 24 at 07 UTC to 24 at 09 UTC
Wind 12 kt from the North/Northeast with gusts up to 24 kt
Temporary
from 24 at 10 UTC to 24 at 16 UTC
Wind 15 kt from the North/Northeast with gusts up to 30 kt

TAF: OAHR 2400/2424 VRB03KT CAVOK BECMG 2407/2409 03012G24KT TEMPO 2410/2416 02015G30KT

Weather observations and forecasts of more than 4000 airports (METAR and TAF reports).

The available stations are represented by yellow and red dots on the map.

Hover mouse over dot to see the name of the station.

Then click to see weather observations and forecasts.

To change the map : click on the green buttons with a black cross to zoom in, on the green button with a dash to zoom out, or on the green arrows for adjacent maps.


METAR-TAF: